createdAt,value
2018-07-31T00:00:28.829Z,70.2
2018-07-31T00:01:09.322Z,70.39
2018-07-31T00:01:49.838Z,70.29
2018-07-31T00:02:30.300Z,69.81
2018-07-31T00:03:10.801Z,69.71
2018-07-31T00:03:51.360Z,69.71
2018-07-31T00:04:31.856Z,69.61
2018-07-31T00:05:12.386Z,69.81
2018-07-31T00:05:52.882Z,70.2
2018-07-31T00:06:33.411Z,70.1
2018-07-31T00:07:13.860Z,69.9
2018-07-31T00:07:54.387Z,69.71
2018-07-31T00:08:34.839Z,69.51
2018-07-31T00:09:15.369Z,69.61
2018-07-31T00:09:55.869Z,69.71
2018-07-31T00:10:36.457Z,69.71
2018-07-31T00:11:16.882Z,69.51
2018-07-31T00:11:57.362Z,69.61
2018-07-31T00:12:37.820Z,69.61
2018-07-31T00:13:18.311Z,69.13
2018-07-31T00:13:58.838Z,69.22
2018-07-31T00:14:39.321Z,69.42
2018-07-31T00:15:19.853Z,69.22
2018-07-31T00:16:00.332Z,69.42
2018-07-31T00:16:40.807Z,69.32
2018-07-31T00:17:21.297Z,69.61
2018-07-31T00:18:01.786Z,70.1
2018-07-31T00:18:42.353Z,69.81
2018-07-31T00:19:22.855Z,70.29
2018-07-31T00:20:03.361Z,69.51
2018-07-31T00:20:43.875Z,70.39
2018-07-31T00:21:24.356Z,70.1
2018-07-31T00:22:04.877Z,70.2
2018-07-31T00:22:45.356Z,70.29
2018-07-31T00:23:25.863Z,70.68
2018-07-31T00:24:06.348Z,70.58
2018-07-31T00:24:46.784Z,70.2
2018-07-31T00:25:27.319Z,70.2
2018-07-31T00:26:07.817Z,70.39
2018-07-31T00:26:48.340Z,70.36
2018-07-31T00:27:28.820Z,70.36
2018-07-31T00:28:09.346Z,70.45
2018-07-31T00:28:49.876Z,70.2
2018-07-31T00:29:30.366Z,70.29
2018-07-31T00:30:10.809Z,70.2
2018-07-31T00:30:51.348Z,70.2
2018-07-31T00:31:31.841Z,69.81
2018-07-31T00:32:12.315Z,69.87
2018-07-31T00:32:52.802Z,70.39
2018-07-31T00:33:33.294Z,70.16
2018-07-31T00:34:13.747Z,70.2
2018-07-31T00:34:54.241Z,69.61
2018-07-31T00:35:34.755Z,69.9
2018-07-31T00:36:15.254Z,69.13
2018-07-31T00:36:55.810Z,69.13
2018-07-31T00:37:36.266Z,69.32
2018-07-31T00:38:16.752Z,69.22
2018-07-31T00:38:57.231Z,68.93
2018-07-31T00:39:37.724Z,69.22
2018-07-31T00:40:18.173Z,69.42
2018-07-31T00:40:58.635Z,69.13
2018-07-31T00:41:39.143Z,69.22
2018-07-31T00:42:19.689Z,69.13
2018-07-31T00:43:00.177Z,69.19
2018-07-31T00:43:40.671Z,69.67
2018-07-31T00:44:21.129Z,70.26
2018-07-31T00:45:01.628Z,70.26
2018-07-31T00:45:42.112Z,70.45
2018-07-31T00:46:22.580Z,70.16
2018-07-31T00:47:03.102Z,70.55
2018-07-31T00:47:43.648Z,70.45
2018-07-31T00:48:24.184Z,70.26
2018-07-31T00:49:04.685Z,70.36
2018-07-31T00:49:45.165Z,70.65
2018-07-31T00:50:25.679Z,70.36
2018-07-31T00:51:06.180Z,70.26
2018-07-31T00:51:46.652Z,70.45
2018-07-31T00:52:27.068Z,71.03
2018-07-31T00:53:07.579Z,70.75
2018-07-31T00:53:48.082Z,70.55
2018-07-31T00:54:28.566Z,70.55
2018-07-31T00:55:09.062Z,71.2
2018-07-31T00:55:49.561Z,71.13
2018-07-31T00:56:30.043Z,71.29
2018-07-31T00:57:10.555Z,71.1
2018-07-31T00:57:51.055Z,71.52
2018-07-31T00:58:31.565Z,71
2018-07-31T00:59:12.061Z,70.32
2018-07-31T00:59:52.539Z,71.2
2018-07-31T01:00:33.050Z,70.36
2018-07-31T01:01:13.510Z,70.55
2018-07-31T01:01:54.074Z,70.36
2018-07-31T01:02:34.557Z,70.16
2018-07-31T01:03:15.014Z,70.16
2018-07-31T01:03:55.497Z,70.36
2018-07-31T01:04:36.038Z,70.55
2018-07-31T01:05:16.487Z,70.55
2018-07-31T01:05:57.026Z,70.45
2018-07-31T01:06:37.554Z,70.36
2018-07-31T01:07:18.041Z,70.61
2018-07-31T01:07:58.560Z,70.9
2018-07-31T01:08:39.055Z,70.51
2018-07-31T01:09:19.534Z,70.61
2018-07-31T01:09:59.993Z,70.51
2018-07-31T01:10:40.468Z,70.32
2018-07-31T01:11:21.006Z,70.03
2018-07-31T01:12:01.471Z,70.32
2018-07-31T01:12:41.986Z,70.71
2018-07-31T01:13:22.454Z,69.93
2018-07-31T01:14:02.975Z,70.26
2018-07-31T01:14:43.457Z,69.54
2018-07-31T01:15:24.014Z,69.77
2018-07-31T01:16:04.492Z,69.67
2018-07-31T01:16:44.946Z,69.74
2018-07-31T01:17:25.462Z,69.54
2018-07-31T01:18:05.957Z,69.54
2018-07-31T01:18:46.419Z,69.74
2018-07-31T01:19:26.905Z,69.54
2018-07-31T01:20:07.442Z,69.64
2018-07-31T01:20:47.892Z,69.74
2018-07-31T01:21:28.382Z,69.87
2018-07-31T01:22:08.886Z,69.84
2018-07-31T01:22:49.391Z,70.22
2018-07-31T01:23:29.909Z,70.22
2018-07-31T01:24:10.405Z,70.12
2018-07-31T01:24:50.914Z,69.54
2018-07-31T01:25:31.422Z,70.03
2018-07-31T01:26:11.983Z,70.42
2018-07-31T01:26:52.421Z,69.64
2018-07-31T01:27:32.928Z,69.64
2018-07-31T01:28:13.439Z,70.42
2018-07-31T01:28:53.895Z,70.71
2018-07-31T01:29:34.371Z,70.42
2018-07-31T01:30:14.786Z,70.9
2018-07-31T01:30:55.318Z,71.1
2018-07-31T01:31:35.839Z,71.06
2018-07-31T01:32:16.313Z,71.68
2018-07-31T01:32:56.802Z,71.68
2018-07-31T01:33:37.299Z,71.97
2018-07-31T01:34:17.829Z,71.74
2018-07-31T01:34:58.329Z,72.45
2018-07-31T01:35:38.818Z,72.45
2018-07-31T01:36:19.339Z,72.07
2018-07-31T01:36:59.791Z,72.71
2018-07-31T01:37:40.256Z,72.27
2018-07-31T01:38:20.728Z,72.07
2018-07-31T01:39:01.270Z,72.45
2018-07-31T01:39:41.705Z,71.97
2018-07-31T01:40:22.218Z,72.75
2018-07-31T01:41:02.853Z,72.85
2018-07-31T01:41:43.404Z,72.36
2018-07-31T01:42:23.897Z,72.07
2018-07-31T01:43:04.402Z,71.58
2018-07-31T01:43:44.868Z,71.88
2018-07-31T01:44:25.371Z,71.88
2018-07-31T01:45:05.808Z,71.78
2018-07-31T01:45:46.343Z,71.39
2018-07-31T01:46:26.781Z,71.78
2018-07-31T01:47:07.235Z,71.29
2018-07-31T01:47:47.709Z,71.2
2018-07-31T01:48:28.256Z,71.2
2018-07-31T01:49:08.753Z,71.48
2018-07-31T01:49:49.262Z,71.88
2018-07-31T01:50:29.759Z,71.68
2018-07-31T01:51:10.231Z,71.58
2018-07-31T01:51:50.733Z,71.88
2018-07-31T01:52:31.230Z,71.88
2018-07-31T01:53:11.707Z,71.78
2018-07-31T01:53:52.205Z,71.88
2018-07-31T01:54:32.692Z,71.88
2018-07-31T01:55:13.212Z,71.58
2018-07-31T01:55:53.697Z,71.78
2018-07-31T01:56:34.150Z,71.78
2018-07-31T01:57:14.684Z,71.58
2018-07-31T01:57:55.201Z,71.88
2018-07-31T01:58:35.668Z,71.1
2018-07-31T01:59:16.148Z,71.88
2018-07-31T01:59:56.645Z,71.29
2018-07-31T02:00:37.170Z,70.81
2018-07-31T02:01:17.665Z,71.29
2018-07-31T02:01:58.180Z,71.29
2018-07-31T02:02:38.603Z,70.81
2018-07-31T02:03:19.112Z,71.39
2018-07-31T02:03:59.604Z,70.9
2018-07-31T02:04:40.137Z,70.9
2018-07-31T02:05:20.624Z,70.51
2018-07-31T02:06:01.150Z,70.51
2018-07-31T02:06:41.638Z,70.03
2018-07-31T02:07:22.121Z,70.19
2018-07-31T02:08:02.643Z,70.19
2018-07-31T02:08:43.121Z,70.48
2018-07-31T02:09:23.663Z,70.48
2018-07-31T02:10:04.180Z,70.39
2018-07-31T02:10:44.647Z,70.57
2018-07-31T02:11:25.136Z,70.39
2018-07-31T02:12:05.625Z,71.26
2018-07-31T02:12:46.123Z,70.57
2018-07-31T02:13:26.626Z,71.36
2018-07-31T02:14:07.119Z,71.26
2018-07-31T02:14:47.616Z,70.19
2018-07-31T02:15:28.042Z,70.09
2018-07-31T02:16:08.612Z,70.29
2018-07-31T02:16:49.062Z,69.6
2018-07-31T02:17:29.572Z,69.32
2018-07-31T02:18:10.095Z,69.41
2018-07-31T02:18:50.570Z,69.12
2018-07-31T02:19:31.011Z,68.63
2018-07-31T02:20:11.505Z,68.73
2018-07-31T02:20:51.985Z,68.73
2018-07-31T02:21:32.519Z,68.93
2018-07-31T02:22:12.974Z,68.63
2018-07-31T02:22:53.454Z,68.83
2018-07-31T02:23:33.962Z,68.35
2018-07-31T02:24:14.441Z,68.83
2018-07-31T02:24:54.920Z,68.73
2018-07-31T02:25:35.428Z,68.73
2018-07-31T02:26:15.890Z,68.73
2018-07-31T02:26:56.402Z,68.63
2018-07-31T02:27:36.873Z,69.12
2018-07-31T02:28:17.474Z,69.02
2018-07-31T02:28:57.880Z,68.79
2018-07-31T02:29:38.375Z,69.02
2018-07-31T02:30:18.839Z,69.02
2018-07-31T02:30:59.353Z,68.93
2018-07-31T02:31:39.836Z,69.09
2018-07-31T02:32:20.275Z,69.41
2018-07-31T02:33:00.809Z,68.83
2018-07-31T02:33:41.351Z,68.83
2018-07-31T02:34:21.814Z,69.22
2018-07-31T02:35:02.290Z,69.6
2018-07-31T02:35:42.784Z,69.51
2018-07-31T02:36:23.397Z,69.7
2018-07-31T02:37:03.707Z,69.12
2018-07-31T02:37:44.236Z,69.12
2018-07-31T02:38:25.033Z,69.22
2018-07-31T02:39:05.548Z,69.22
2018-07-31T02:39:46.056Z,69.22
2018-07-31T02:40:26.556Z,69.28
2018-07-31T02:41:07.091Z,68.89
2018-07-31T02:41:47.527Z,68.93
2018-07-31T02:42:28.021Z,69.51
2018-07-31T02:43:08.483Z,69.48
2018-07-31T02:43:48.968Z,69.96
2018-07-31T02:44:29.484Z,69.38
2018-07-31T02:45:09.992Z,69.76
2018-07-31T02:45:50.470Z,69.57
2018-07-31T02:46:30.932Z,69.8
2018-07-31T02:47:11.420Z,69.12
2018-07-31T02:47:51.969Z,69.51
2018-07-31T02:48:32.442Z,69.22
2018-07-31T02:49:12.891Z,69.18
2018-07-31T02:49:53.352Z,69.02
2018-07-31T02:50:33.891Z,69.22
2018-07-31T02:51:14.338Z,69.12
2018-07-31T02:51:54.831Z,69.32
2018-07-31T02:52:35.340Z,69.02
2018-07-31T02:53:15.856Z,69.8
2018-07-31T02:53:56.376Z,69.51
2018-07-31T02:54:36.814Z,69.51
2018-07-31T02:55:17.352Z,69.22
2018-07-31T02:55:57.827Z,69.7
2018-07-31T02:56:38.300Z,69.96
2018-07-31T02:57:18.737Z,70.09
2018-07-31T02:57:59.278Z,69.86
2018-07-31T02:58:39.728Z,70.29
2018-07-31T02:59:20.215Z,69.51
2018-07-31T03:00:00.760Z,69.48
2018-07-31T03:00:41.282Z,69.6
2018-07-31T03:01:21.773Z,69.6
2018-07-31T03:02:02.284Z,69.7
2018-07-31T03:02:42.748Z,69.41
2018-07-31T03:03:23.259Z,69.76
2018-07-31T03:04:03.749Z,70.09
2018-07-31T03:04:44.242Z,70.25
2018-07-31T03:05:24.744Z,70.15
2018-07-31T03:06:05.199Z,69.96
2018-07-31T03:06:45.750Z,70.25
2018-07-31T03:07:26.217Z,70.25
2018-07-31T03:08:06.782Z,70.06
2018-07-31T03:08:47.202Z,70.15
2018-07-31T03:09:27.717Z,70.45
2018-07-31T03:10:08.217Z,70.15
2018-07-31T03:10:48.670Z,70.15
2018-07-31T03:11:29.189Z,69.96
2018-07-31T03:12:09.669Z,70.25
2018-07-31T03:12:50.156Z,69.96
2018-07-31T03:13:30.736Z,70.15
2018-07-31T03:14:11.145Z,70.35
2018-07-31T03:14:51.661Z,70.25
2018-07-31T03:15:32.173Z,70.35
2018-07-31T03:16:12.649Z,70.35
2018-07-31T03:16:53.149Z,70.15
2018-07-31T03:17:33.647Z,70.35
2018-07-31T03:18:14.243Z,70.35
2018-07-31T03:18:54.755Z,70.45
2018-07-31T03:19:35.212Z,70.25
2018-07-31T03:20:15.699Z,70.35
2018-07-31T03:20:56.165Z,70.15
2018-07-31T03:21:36.735Z,70.35
2018-07-31T03:22:17.120Z,70.54
2018-07-31T03:22:57.643Z,70.9
2018-07-31T03:23:38.174Z,71.03
2018-07-31T03:24:18.640Z,70.73
2018-07-31T03:24:59.121Z,71.32
2018-07-31T03:25:39.639Z,70.45
2018-07-31T03:26:20.100Z,70.73
2018-07-31T03:27:00.653Z,70.83
2018-07-31T03:27:41.096Z,71.22
2018-07-31T03:28:21.634Z,71.67
2018-07-31T03:29:02.105Z,70.93
2018-07-31T03:29:42.667Z,70.93
2018-07-31T03:30:23.105Z,70.93
2018-07-31T03:31:03.608Z,71.42
2018-07-31T03:31:44.110Z,70.83
2018-07-31T03:32:24.587Z,71.8
2018-07-31T03:33:05.111Z,71.51
2018-07-31T03:33:45.531Z,71.9
2018-07-31T03:34:26.017Z,71.8
2018-07-31T03:35:06.505Z,71.58
2018-07-31T03:35:47.006Z,71.96
2018-07-31T03:36:27.496Z,71.67
2018-07-31T03:38:20.521Z,72.25
2018-07-31T03:39:01.024Z,72.25
2018-07-31T03:39:41.527Z,71.86
2018-07-31T03:40:22.057Z,71.86
2018-07-31T03:41:02.619Z,72.35
2018-07-31T03:41:43.109Z,72.19
2018-07-31T03:42:23.568Z,71.61
2018-07-31T03:43:04.071Z,71.38
2018-07-31T03:43:44.546Z,71.48
2018-07-31T03:44:25.054Z,71.48
2018-07-31T03:45:05.507Z,71.7
2018-07-31T03:45:45.977Z,71.77
2018-07-31T03:46:26.504Z,71.8
2018-07-31T03:47:06.984Z,71.8
2018-07-31T03:47:47.463Z,71.86
2018-07-31T03:48:27.954Z,71.96
2018-07-31T03:49:08.422Z,72.25
2018-07-31T03:49:48.945Z,72.29
2018-07-31T03:50:29.413Z,71.67
2018-07-31T03:51:09.960Z,71.77
2018-07-31T03:51:50.389Z,71.38
2018-07-31T03:52:30.869Z,71.96
2018-07-31T03:53:11.505Z,71.86
2018-07-31T03:53:51.902Z,71.86
2018-07-31T03:54:32.415Z,71.96
2018-07-31T03:55:12.915Z,72.16
2018-07-31T03:55:53.744Z,71.7
2018-07-31T03:56:34.310Z,71.86
2018-07-31T03:57:14.817Z,71.8
2018-07-31T03:57:55.297Z,71.22
2018-07-31T03:58:35.835Z,71.12
2018-07-31T03:59:16.328Z,70.99
2018-07-31T03:59:56.806Z,70.83
2018-07-31T04:00:37.333Z,71.03
2018-07-31T04:01:17.840Z,71.22
2018-07-31T04:01:58.383Z,71.03
2018-07-31T04:02:38.821Z,70.83
2018-07-31T04:03:19.329Z,71.12
2018-07-31T04:03:59.818Z,71.22
2018-07-31T04:04:40.373Z,71.03
2018-07-31T04:05:20.828Z,71.12
2018-07-31T04:06:01.323Z,71.03
2018-07-31T04:06:41.840Z,71.22
2018-07-31T04:07:22.356Z,71.7
2018-07-31T04:08:02.805Z,71.22
2018-07-31T04:08:43.303Z,71.51
2018-07-31T04:09:23.788Z,71.67
2018-07-31T04:10:04.311Z,71.67
2018-07-31T04:10:44.803Z,71.96
2018-07-31T04:11:25.353Z,72
2018-07-31T04:12:05.772Z,72.35
2018-07-31T04:12:46.296Z,72.58
2018-07-31T04:13:26.778Z,73.03
2018-07-31T04:14:07.276Z,72.55
2018-07-31T04:14:47.769Z,72.39
2018-07-31T04:15:28.274Z,72.09
2018-07-31T04:16:08.842Z,72.58
2018-07-31T04:16:49.397Z,71.96
2018-07-31T04:17:29.838Z,71.8
2018-07-31T04:18:10.283Z,72.09
2018-07-31T04:18:50.854Z,71.51
2018-07-31T04:19:31.389Z,71.61
2018-07-31T04:20:11.865Z,71.9
2018-07-31T04:20:52.360Z,71.9
2018-07-31T04:21:32.823Z,71.22
2018-07-31T04:22:13.358Z,71.7
2018-07-31T04:22:53.853Z,71.7
2018-07-31T04:23:34.287Z,71.61
2018-07-31T04:24:14.790Z,71.7
2018-07-31T04:24:55.242Z,72.29
2018-07-31T04:25:35.731Z,72.45
2018-07-31T04:26:16.273Z,71.9
2018-07-31T04:26:56.690Z,72.25
2018-07-31T04:27:37.201Z,72.74
2018-07-31T04:28:17.691Z,72.64
2018-07-31T04:28:58.216Z,71.96
2018-07-31T04:29:38.659Z,72.74
2018-07-31T04:30:19.154Z,71.96
2018-07-31T04:30:59.745Z,72.45
2018-07-31T04:31:40.412Z,72
2018-07-31T04:32:21.655Z,71.7
2018-07-31T04:33:02.207Z,71.58
2018-07-31T04:33:42.694Z,71.9
2018-07-31T04:34:23.185Z,71.7
2018-07-31T04:35:03.699Z,71.7
2018-07-31T04:35:44.232Z,71.7
2018-07-31T04:36:24.696Z,71.7
2018-07-31T04:37:05.177Z,71.8
2018-07-31T04:37:45.681Z,71.7
2018-07-31T04:38:26.213Z,71.9
2018-07-31T04:39:06.674Z,71.9
2018-07-31T04:39:47.136Z,71.51
2018-07-31T04:40:27.625Z,72
2018-07-31T04:41:08.274Z,72
2018-07-31T04:41:48.730Z,72
2018-07-31T04:42:29.217Z,72.39
2018-07-31T04:43:09.721Z,71.61
2018-07-31T04:43:50.226Z,71.8
2018-07-31T04:44:30.747Z,71.8
2018-07-31T04:45:11.218Z,71.8
2018-07-31T04:45:51.693Z,71.74
2018-07-31T04:46:32.215Z,71.42
2018-07-31T04:47:12.788Z,71.84
2018-07-31T04:47:53.347Z,71.8
2018-07-31T04:48:33.790Z,72
2018-07-31T04:49:14.394Z,71.94
2018-07-31T04:49:54.880Z,71.74
2018-07-31T04:50:35.407Z,71.36
2018-07-31T04:51:15.893Z,71.64
2018-07-31T04:51:56.457Z,71.55
2018-07-31T04:52:36.956Z,71.64
2018-07-31T04:53:17.350Z,71.06
2018-07-31T04:53:57.852Z,71.32
2018-07-31T04:54:38.300Z,71.94
2018-07-31T04:55:18.837Z,71.74
2018-07-31T04:55:59.299Z,71.55
2018-07-31T04:56:39.810Z,71.61
2018-07-31T04:57:20.290Z,71.64
2018-07-31T04:58:00.765Z,72.03
2018-07-31T04:58:41.318Z,71.84
2018-07-31T04:59:21.745Z,71.74
2018-07-31T05:00:02.215Z,71.55
2018-07-31T05:00:42.748Z,70.97
2018-07-31T05:01:23.260Z,70.35
2018-07-31T05:02:03.708Z,70.48
2018-07-31T05:02:44.364Z,70.19
2018-07-31T05:03:24.775Z,68.93
2018-07-31T05:04:05.298Z,68.73
2018-07-31T05:04:45.756Z,68.08
2018-07-31T05:05:26.238Z,67.7
2018-07-31T05:06:06.811Z,67.6
2018-07-31T05:06:47.288Z,67.7
2018-07-31T05:07:27.777Z,67.86
2018-07-31T05:08:08.357Z,67.6
2018-07-31T05:08:48.839Z,67.76
2018-07-31T05:09:29.347Z,68.15
2018-07-31T05:10:09.826Z,68.35
2018-07-31T05:10:50.333Z,68.25
2018-07-31T05:11:30.852Z,68.44
2018-07-31T05:12:11.334Z,68.44
2018-07-31T05:12:51.848Z,68.44
2018-07-31T05:13:32.490Z,67.76
2018-07-31T05:14:14.693Z,68.15
2018-07-31T05:14:56.158Z,67.57
2018-07-31T05:15:36.688Z,67.76
2018-07-31T05:16:17.462Z,67.18
2018-07-31T05:16:57.977Z,67.37
2018-07-31T05:17:38.552Z,67.08
2018-07-31T05:18:19.061Z,67.08
2018-07-31T05:18:59.574Z,66.11
2018-07-31T05:19:40.093Z,66.4
2018-07-31T05:20:20.534Z,66.11
2018-07-31T05:21:01.042Z,65.92
2018-07-31T05:21:41.482Z,65.63
2018-07-31T05:22:22.005Z,65.82
2018-07-31T05:23:02.471Z,66.11
2018-07-31T05:23:42.950Z,69.51
2018-07-31T05:24:23.471Z,73.3
2018-07-31T05:25:03.998Z,74.46
2018-07-31T05:25:44.459Z,77.47
2018-07-31T05:26:24.945Z,77.08
2018-07-31T05:27:05.463Z,78.44
2018-07-31T05:27:45.946Z,78.73
2018-07-31T05:28:26.494Z,77.08
2018-07-31T05:29:06.995Z,74.27
2018-07-31T05:29:47.456Z,75.34
2018-07-31T05:30:27.940Z,78.15
2018-07-31T05:31:08.426Z,78.54
2018-07-31T05:31:48.972Z,77.08
2018-07-31T05:32:29.530Z,76.89
2018-07-31T05:33:09.941Z,76.01
2018-07-31T05:33:50.452Z,75.53
2018-07-31T05:34:30.989Z,75.24
2018-07-31T05:35:11.506Z,76.31
2018-07-31T05:35:51.948Z,75.14
2018-07-31T05:36:32.479Z,74.85
2018-07-31T05:37:12.985Z,74.88
2018-07-31T05:37:53.445Z,76.83
2018-07-31T05:38:33.963Z,80.29
2018-07-31T05:39:14.428Z,79.61
2018-07-31T05:39:54.954Z,78.83
2018-07-31T05:40:35.437Z,76.01
2018-07-31T05:41:15.909Z,76.89
2018-07-31T05:41:56.458Z,77.95
2018-07-31T05:42:36.978Z,75.08
2018-07-31T05:43:17.448Z,75.57
2018-07-31T05:43:57.969Z,77.9
2018-07-31T05:44:38.453Z,77.02
2018-07-31T05:45:18.955Z,77.61
2018-07-31T05:45:59.447Z,78.09
2018-07-31T05:46:39.952Z,76.01
2018-07-31T05:47:20.401Z,74.85
2018-07-31T05:48:00.914Z,74.46
2018-07-31T05:48:41.430Z,73.82
2018-07-31T05:49:21.950Z,73.3
2018-07-31T05:50:02.475Z,74.4
2018-07-31T05:50:42.931Z,71.97
2018-07-31T05:51:23.481Z,72.55
2018-07-31T05:52:03.954Z,72.07
2018-07-31T05:52:44.475Z,74.98
2018-07-31T05:53:25.017Z,77.31
2018-07-31T05:54:05.498Z,78.09
2018-07-31T05:54:45.992Z,76.34
2018-07-31T05:55:26.464Z,73.95
2018-07-31T05:56:06.953Z,74.05
2018-07-31T05:56:47.452Z,71.94
2018-07-31T05:57:28.675Z,71.75
2018-07-31T05:58:09.132Z,72.37
2018-07-31T05:58:50.083Z,73.63
2018-07-31T05:59:30.761Z,73.44
2018-07-31T06:00:11.284Z,73.67
2018-07-31T06:00:51.837Z,72.6
2018-07-31T06:01:32.299Z,70.07
2018-07-31T06:02:12.774Z,73.96
2018-07-31T06:02:53.268Z,73.67
2018-07-31T06:03:33.888Z,70.46
2018-07-31T06:04:14.303Z,70.07
2018-07-31T06:04:54.784Z,70.65
2018-07-31T06:05:35.295Z,72.21
2018-07-31T06:06:15.814Z,72.6
2018-07-31T06:06:56.315Z,72.02
2018-07-31T06:07:36.768Z,71.14
2018-07-31T06:08:17.257Z,72.8
2018-07-31T06:08:57.786Z,74.74
2018-07-31T06:09:38.355Z,74.35
2018-07-31T06:10:18.762Z,75.91
2018-07-31T06:10:59.300Z,77.21
2018-07-31T06:11:39.751Z,76.53
2018-07-31T06:12:20.270Z,75.16
2018-07-31T06:13:00.790Z,75.07
2018-07-31T06:13:41.285Z,72.15
2018-07-31T06:14:21.757Z,72.57
2018-07-31T06:15:02.273Z,74.56
2018-07-31T06:15:42.769Z,74.27
2018-07-31T06:16:23.249Z,72.71
2018-07-31T06:17:03.782Z,69.98
2018-07-31T06:17:44.247Z,71.25
2018-07-31T06:18:24.798Z,71.25
2018-07-31T06:19:05.318Z,67.83
2018-07-31T06:19:45.783Z,66.5
2018-07-31T06:20:26.239Z,69.23
2018-07-31T06:21:06.736Z,71.86
2018-07-31T06:21:47.281Z,70.7
2018-07-31T06:22:27.706Z,74.4
2018-07-31T06:23:08.204Z,73.62
2018-07-31T06:23:48.699Z,72.84
2018-07-31T06:24:29.207Z,74.5
2018-07-31T06:25:09.706Z,72.35
2018-07-31T06:25:50.197Z,72.94
2018-07-31T06:26:30.737Z,76.02
2018-07-31T06:27:11.205Z,75.86
2018-07-31T06:27:51.695Z,73.88
2018-07-31T06:28:32.208Z,75.18
2018-07-31T06:29:12.732Z,71.83
2018-07-31T06:29:53.191Z,71.15
2018-07-31T06:30:33.936Z,72.02
2018-07-31T06:31:14.484Z,75.43
2018-07-31T06:31:55.006Z,72.71
2018-07-31T06:32:35.488Z,70.95
2018-07-31T06:33:15.940Z,71.73
2018-07-31T06:33:56.448Z,74.76
2018-07-31T06:34:36.945Z,71.64
2018-07-31T06:35:17.498Z,72.41
2018-07-31T06:35:57.902Z,71.64
2018-07-31T06:36:38.380Z,73.68
2018-07-31T06:37:18.927Z,73.55
2018-07-31T06:37:59.440Z,71.89
2018-07-31T06:38:39.925Z,69.26
2018-07-31T06:39:20.401Z,69.46
2018-07-31T06:40:00.921Z,70.82
2018-07-31T06:40:41.385Z,72.19
2018-07-31T06:41:21.861Z,72.77
2018-07-31T06:42:02.417Z,71.76
2018-07-31T06:42:42.930Z,72.05
2018-07-31T06:43:23.455Z,70.01
2018-07-31T06:44:03.886Z,68.93
2018-07-31T06:44:44.396Z,68.64
2018-07-31T06:45:24.907Z,73.74
2018-07-31T06:46:05.384Z,74.04
2018-07-31T06:46:45.846Z,73.74
2018-07-31T06:47:26.382Z,76.57
2018-07-31T06:48:06.845Z,76.28
2018-07-31T06:48:47.381Z,75.69
2018-07-31T06:49:27.889Z,73.35
2018-07-31T06:50:08.414Z,68.97
2018-07-31T06:50:48.925Z,70.43
2018-07-31T06:51:29.442Z,70.92
2018-07-31T06:52:09.987Z,70.56
2018-07-31T06:52:50.491Z,72.22
2018-07-31T06:53:31.002Z,67.74
2018-07-31T06:54:11.604Z,68.23
2018-07-31T06:54:52.041Z,67.57
2018-07-31T06:55:32.593Z,69.23
2018-07-31T06:56:13.078Z,70.7
2018-07-31T06:56:53.608Z,68.87
2018-07-31T06:57:34.157Z,68.97
2018-07-31T06:58:14.663Z,66.44
2018-07-31T06:58:55.120Z,70.67
2018-07-31T06:59:35.634Z,71.7
2018-07-31T07:00:16.126Z,69.3
2018-07-31T07:00:56.627Z,70.47
2018-07-31T07:01:37.088Z,70.57
2018-07-31T07:02:17.640Z,67.44
2018-07-31T07:02:58.134Z,66.5
2018-07-31T07:03:38.623Z,67.74
2018-07-31T07:04:19.110Z,70.61
2018-07-31T07:04:59.588Z,69.43
2018-07-31T07:05:40.126Z,72.75
2018-07-31T07:06:20.585Z,70.96
2018-07-31T07:07:01.115Z,70.51
2018-07-31T07:07:41.593Z,73.73
2018-07-31T07:08:22.103Z,69.73
2018-07-31T07:09:02.591Z,67.77
2018-07-31T07:09:43.122Z,69.43
2018-07-31T07:10:23.678Z,72.27
2018-07-31T07:11:04.167Z,71.29
2018-07-31T07:11:44.612Z,69.63
2018-07-31T07:12:25.120Z,70.31
2018-07-31T07:13:05.656Z,70.12
2018-07-31T07:13:46.147Z,69.46
2018-07-31T07:14:26.660Z,67.41
2018-07-31T07:15:07.164Z,66.05
2018-07-31T07:15:47.642Z,65.26
2018-07-31T07:16:28.121Z,66.44
2018-07-31T07:17:08.685Z,66.14
2018-07-31T07:17:49.151Z,64.97
2018-07-31T07:18:29.649Z,63.8
2018-07-31T07:19:10.163Z,64.09
2018-07-31T07:19:50.658Z,61.09
2018-07-31T07:20:31.155Z,61.48
2018-07-31T07:21:11.624Z,65.3
2018-07-31T07:21:52.084Z,65.26
2018-07-31T07:22:32.648Z,65.26
2018-07-31T07:23:13.115Z,66.24
2018-07-31T07:23:53.642Z,66.34
2018-07-31T07:24:34.153Z,66.44
2018-07-31T07:25:14.640Z,66.63
2018-07-31T07:25:55.176Z,66.53
2018-07-31T07:26:35.677Z,66.05
2018-07-31T07:27:16.170Z,66.05
2018-07-31T07:27:56.714Z,69.07
2018-07-31T07:28:37.203Z,68.29
2018-07-31T07:29:17.720Z,67.8
2018-07-31T07:29:58.201Z,66.73
2018-07-31T07:30:38.744Z,67.32
2018-07-31T07:31:19.220Z,68.29
2018-07-31T07:31:59.768Z,69.17
2018-07-31T07:32:40.266Z,71.06
2018-07-31T07:33:20.754Z,67.54
2018-07-31T07:34:01.362Z,70.48
2018-07-31T07:34:41.730Z,69.5
2018-07-31T07:35:22.240Z,72.63
2018-07-31T07:36:02.798Z,67.25
2018-07-31T07:36:43.294Z,72.04
2018-07-31T07:37:23.748Z,70.87
2018-07-31T07:38:04.319Z,69.11
2018-07-31T07:38:44.757Z,69.99
2018-07-31T07:39:25.323Z,68.82
2018-07-31T07:40:05.787Z,62.16
2018-07-31T07:40:46.297Z,67.74
2018-07-31T07:41:26.778Z,67.35
2018-07-31T07:42:07.319Z,66.56
2018-07-31T07:42:47.768Z,65.3
2018-07-31T07:43:28.258Z,64.12
2018-07-31T07:44:08.803Z,67.74
2018-07-31T07:44:49.381Z,66.56
2018-07-31T07:45:29.770Z,66.86
2018-07-31T07:46:10.333Z,66.86
2018-07-31T07:46:50.781Z,65.2
2018-07-31T07:47:31.293Z,64.51
2018-07-31T07:48:11.788Z,62.66
2018-07-31T07:48:52.268Z,61.29
2018-07-31T07:49:32.942Z,60.93
2018-07-31T07:50:13.330Z,63.73
2018-07-31T07:50:53.848Z,66.47
2018-07-31T07:51:34.313Z,65.3
2018-07-31T07:52:14.778Z,66.76
2018-07-31T07:52:55.407Z,69.31
2018-07-31T07:53:36.190Z,71.36
2018-07-31T07:54:16.717Z,72.24
2018-07-31T07:54:57.427Z,63.24
2018-07-31T07:55:37.743Z,65.3
2018-07-31T07:56:18.393Z,65.33
2018-07-31T07:56:58.838Z,68.62
2018-07-31T07:57:39.650Z,70.77
2018-07-31T07:58:20.521Z,66.96
2018-07-31T07:59:01.043Z,66.56
2018-07-31T07:59:41.562Z,67.05
2018-07-31T08:00:22.375Z,64.9
2018-07-31T08:02:20.613Z,64.15
2018-07-31T08:03:01.119Z,62.95
2018-07-31T08:03:41.646Z,63.05
2018-07-31T08:04:22.180Z,60.34
2018-07-31T08:05:02.685Z,63.83
2018-07-31T08:05:43.207Z,64.51
2018-07-31T08:06:23.641Z,65.59
2018-07-31T08:07:04.913Z,63.83
2018-07-31T08:07:45.384Z,64.22
2018-07-31T08:08:25.852Z,64.32
2018-07-31T08:09:06.598Z,62.16
2018-07-31T08:09:47.893Z,58.75
2018-07-31T08:10:28.365Z,58.75
2018-07-31T08:11:09.832Z,60.31
2018-07-31T08:11:50.726Z,63.83
2018-07-31T08:12:31.433Z,63.93
2018-07-31T08:13:12.009Z,66.17
2018-07-31T08:13:52.906Z,67.02
2018-07-31T08:14:33.278Z,64.81
2018-07-31T08:15:14.015Z,67.93
2018-07-31T08:15:55.238Z,72.14
2018-07-31T08:16:36.109Z,63.73
2018-07-31T08:17:16.632Z,62.66
2018-07-31T08:17:57.119Z,65.3
2018-07-31T08:18:37.575Z,62.16
2018-07-31T08:19:18.082Z,58.84
2018-07-31T08:19:58.587Z,62.16
2018-07-31T08:20:39.103Z,65.49
2018-07-31T08:21:19.878Z,63.34
2018-07-31T08:22:00.556Z,67.05
2018-07-31T08:22:41.114Z,65.69
2018-07-31T08:23:21.544Z,70.77
2018-07-31T08:24:02.104Z,72.53
2018-07-31T08:24:42.610Z,71.16
2018-07-31T08:25:23.111Z,69.4
2018-07-31T08:26:04.140Z,64.9
2018-07-31T08:26:44.721Z,64.94
2018-07-31T08:27:25.336Z,67.58
2018-07-31T08:28:05.785Z,67.93
2018-07-31T08:28:46.787Z,65.59
2018-07-31T08:29:27.265Z,62.56
2018-07-31T08:30:08.091Z,60.34
2018-07-31T08:30:49.600Z,64.15
2018-07-31T08:31:30.184Z,66.86
2018-07-31T08:32:10.840Z,69.5
2018-07-31T08:32:51.321Z,71.65
2018-07-31T08:33:31.917Z,67.29
2018-07-31T08:34:12.481Z,65.33
2018-07-31T08:34:53.080Z,62.79
2018-07-31T08:35:33.780Z,60.63
2018-07-31T08:36:14.226Z,61.22
2018-07-31T08:36:54.727Z,62.36
2018-07-31T08:37:35.272Z,69.04
2018-07-31T08:38:15.726Z,65.69
2018-07-31T08:38:56.326Z,70.87
2018-07-31T08:39:36.874Z,65.59
2018-07-31T08:40:17.365Z,63.93
2018-07-31T08:40:57.898Z,69.31
2018-07-31T08:41:38.378Z,66.27
2018-07-31T08:42:19.023Z,69.6
2018-07-31T08:42:59.409Z,66.37
2018-07-31T08:43:40.053Z,62.36
2018-07-31T08:44:20.369Z,64.12
2018-07-31T08:45:00.910Z,67.54
2018-07-31T08:45:41.434Z,67.35
2018-07-31T08:46:22.385Z,65.1
2018-07-31T08:47:02.866Z,63.34